Time;durP1;ratioP1;P1;durP2;ratioP2;P2;SDS_P1;SDS_P2;PMS_P1;PMS_P2;Temp;Humidity;BMP_temperature;BMP_pressure;BME280_temperature;BME280_humidity;BME280_pressure;Samples;Min_cycle;Max_cycle;Signal;HPM_P1;HPM_P2
2021/04/24 00:00:35;;;;;;;3.08;2.53;;;;;;;;;;5113047;28;20234;-43
2021/04/24 00:03:02;;;;;;;2.97;2.63;;;;;;;;;;5114078;28;20212;-43
2021/04/24 00:05:29;;;;;;;2.63;2.40;;;;;;;;;;5101500;28;20465;-43
2021/04/24 00:07:57;;;;;;;2.85;2.50;;;;;;;;;;5109334;28;20180;-43
2021/04/24 00:10:23;;;;;;;3.25;2.65;;;;;;;;;;5114798;28;20172;-43
2021/04/24 00:12:50;;;;;;;2.40;2.20;;;;;;;;;;5114695;28;20211;-43
2021/04/24 00:15:16;;;;;;;2.85;2.47;;;;;;;;;;5095109;28;20241;-43
2021/04/24 00:17:42;;;;;;;3.45;2.45;;;;;;;;;;5113480;28;20516;-43
2021/04/24 00:20:10;;;;;;;2.60;2.40;;;;;;;;;;5115241;28;20181;-43
2021/04/24 00:22:37;;;;;;;2.65;2.35;;;;;;;;;;5113277;28;20300;-43
2021/04/24 00:25:03;;;;;;;2.72;2.45;;;;;;;;;;5114708;28;20180;-43
2021/04/24 00:27:29;;;;;;;3.00;2.58;;;;;;;;;;5114660;28;20173;-43
2021/04/24 00:29:55;;;;;;;4.15;2.80;;;;;;;;;;5114775;28;20184;-43
2021/04/24 00:32:21;;;;;;;2.70;2.50;;;;;;;;;;5113254;28;20177;-43
2021/04/24 00:34:47;;;;;;;2.97;2.45;;;;;;;;;;5112687;28;20195;-43
2021/04/24 00:37:13;;;;;;;3.17;2.70;;;;;;;;;;5115207;28;20171;-43
2021/04/24 00:39:39;;;;;;;3.35;2.78;;;;;;;;;;5114560;28;20306;-43
2021/04/24 00:42:06;;;;;;;2.97;2.50;;;;;;;;;;5113978;28;20609;-43
2021/04/24 00:44:32;;;;;;;2.90;2.50;;;;;;;;;;5114770;28;20188;-43
2021/04/24 00:46:58;;;;;;;2.63;2.42;;;;;;;;;;5115260;28;20173;-43
2021/04/24 00:49:24;;;;;;;3.28;2.70;;;;;;;;;;5109223;28;20174;-43
2021/04/24 00:51:50;;;;;;;2.80;2.38;;;;;;;;;;5113725;28;20181;-43
2021/04/24 00:54:16;;;;;;;2.95;2.60;;;;;;;;;;5115943;28;20238;-43
2021/04/24 00:56:43;;;;;;;2.28;2.13;;;;;;;;;;5119035;28;20230;-43
2021/04/24 00:59:09;;;;;;;3.55;2.80;;;;;;;;;;5118818;28;20191;-43
2021/04/24 01:01:35;;;;;;;2.42;2.20;;;;;;;;;;5118191;28;20236;-43
2021/04/24 01:04:01;;;;;;;3.58;2.38;;;;;;;;;;5118999;28;20175;-43
2021/04/24 01:06:27;;;;;;;2.95;2.40;;;;;;;;;;5106535;28;20177;-43
2021/04/24 01:08:53;;;;;;;3.30;2.45;;;;;;;;;;5117530;28;20205;-43
2021/04/24 01:11:19;;;;;;;2.50;2.30;;;;;;;;;;5117921;28;20173;-43
2021/04/24 01:13:45;;;;;;;2.47;2.28;;;;;;;;;;5118205;28;20497;-43
2021/04/24 01:16:12;;;;;;;2.85;2.10;;;;;;;;;;5118682;28;20182;-43
2021/04/24 01:18:38;;;;;;;3.40;2.50;;;;;;;;;;5118397;28;20256;-43
2021/04/24 01:21:08;;;;;;;2.55;2.35;;;;;;;;;;5105030;28;20269;-43
2021/04/24 01:23:34;;;;;;;2.53;2.33;;;;;;;;;;5109138;28;20177;-43
2021/04/24 01:26:01;;;;;;;3.10;2.30;;;;;;;;;;5118446;28;20177;-43
2021/04/24 01:28:28;;;;;;;2.50;2.30;;;;;;;;;;5118193;28;20188;-43
2021/04/24 01:30:54;;;;;;;3.45;2.55;;;;;;;;;;5117783;28;20182;-43
2021/04/24 01:33:22;;;;;;;2.60;2.40;;;;;;;;;;5117526;28;20260;-43
2021/04/24 01:35:48;;;;;;;2.78;2.50;;;;;;;;;;5103474;28;20177;-43
2021/04/24 01:38:16;;;;;;;2.33;2.13;;;;;;;;;;5118352;28;20180;-43
2021/04/24 01:40:42;;;;;;;2.67;2.10;;;;;;;;;;5117339;28;20181;-43
2021/04/24 01:43:08;;;;;;;2.67;2.42;;;;;;;;;;5117634;28;20204;-43
2021/04/24 01:45:34;;;;;;;2.35;2.15;;;;;;;;;;5117825;28;20169;-43
2021/04/24 01:48:01;;;;;;;2.40;2.20;;;;;;;;;;5112528;28;20209;-43
2021/04/24 01:50:29;;;;;;;2.72;2.30;;;;;;;;;;5107860;28;20165;-43
2021/04/24 01:52:55;;;;;;;2.67;2.42;;;;;;;;;;5117828;28;20571;-43
2021/04/24 01:55:23;;;;;;;2.45;2.22;;;;;;;;;;5118009;28;20268;-43
2021/04/24 01:57:50;;;;;;;2.55;2.20;;;;;;;;;;5117077;28;20591;-43
2021/04/24 02:00:18;;;;;;;2.50;2.30;;;;;;;;;;5117868;28;20495;-43
2021/04/24 02:02:44;;;;;;;3.28;2.40;;;;;;;;;;5116635;28;20211;-43
2021/04/24 02:05:12;;;;;;;2.30;2.10;;;;;;;;;;5114026;28;20177;-40
2021/04/24 02:07:38;;;;;;;3.40;2.50;;;;;;;;;;5117126;28;20264;-41
2021/04/24 02:10:11;;;;;;;3.65;2.58;;;;;;;;;;5117751;28;20230;-40
2021/04/24 02:12:38;;;;;;;2.42;2.10;;;;;;;;;;5116770;28;20246;-40
2021/04/24 02:15:04;;;;;;;2.65;2.25;;;;;;;;;;5117560;28;20459;-40
2021/04/24 02:17:30;;;;;;;2.42;2.22;;;;;;;;;;5101030;28;20594;-40
2021/04/24 02:19:56;;;;;;;2.20;2.10;;;;;;;;;;5108902;28;20189;-40
2021/04/24 02:22:23;;;;;;;2.85;2.65;;;;;;;;;;5115650;28;20605;-40
2021/04/24 02:24:50;;;;;;;2.30;2.10;;;;;;;;;;5108605;28;20177;-40
2021/04/24 02:27:16;;;;;;;2.60;2.40;;;;;;;;;;5117287;28;20248;-40
2021/04/24 02:29:43;;;;;;;2.42;2.22;;;;;;;;;;5116555;28;20169;-40
2021/04/24 02:32:10;;;;;;;2.55;2.25;;;;;;;;;;5116262;28;20189;-40
2021/04/24 02:34:37;;;;;;;2.72;2.53;;;;;;;;;;5117223;28;20259;-40
2021/04/24 02:37:03;;;;;;;2.50;2.30;;;;;;;;;;5116941;28;20177;-40
2021/04/24 02:39:30;;;;;;;2.58;2.30;;;;;;;;;;5116920;28;20209;-40
2021/04/24 02:41:57;;;;;;;2.53;2.20;;;;;;;;;;5112185;28;20204;-40
2021/04/24 02:44:23;;;;;;;2.30;2.10;;;;;;;;;;5116620;28;20552;-40
2021/04/24 02:46:49;;;;;;;2.15;1.98;;;;;;;;;;5116514;28;20176;-41
2021/04/24 02:49:15;;;;;;;2.35;2.05;;;;;;;;;;5116217;28;20170;-40
2021/04/24 02:51:41;;;;;;;2.20;2.00;;;;;;;;;;5116243;28;20169;-40
2021/04/24 02:54:07;;;;;;;2.13;1.92;;;;;;;;;;5116386;28;20451;-40
2021/04/24 02:56:33;;;;;;;2.28;2.05;;;;;;;;;;5107150;28;20210;-40
2021/04/24 02:58:59;;;;;;;2.30;2.10;;;;;;;;;;5116354;28;20180;-40
2021/04/24 03:01:25;;;;;;;2.40;2.20;;;;;;;;;;5116135;28;20643;-40
2021/04/24 03:03:51;;;;;;;1.98;1.88;;;;;;;;;;5111902;28;20181;-40
2021/04/24 03:06:17;;;;;;;2.40;2.20;;;;;;;;;;5116761;28;20491;-40
2021/04/24 03:08:43;;;;;;;2.08;1.88;;;;;;;;;;5115557;28;20260;-40
2021/04/24 03:11:09;;;;;;;2.85;2.22;;;;;;;;;;5115874;28;20166;-41
2021/04/24 03:13:35;;;;;;;2.28;2.08;;;;;;;;;;5115862;28;20181;-40
2021/04/24 03:16:01;;;;;;;2.38;2.17;;;;;;;;;;5115874;28;20169;-40
2021/04/24 03:18:27;;;;;;;4.10;1.90;;;;;;;;;;5116221;28;20548;-40
2021/04/24 03:20:53;;;;;;;2.25;2.00;;;;;;;;;;5115348;28;20197;-40
2021/04/24 03:23:19;;;;;;;2.35;1.90;;;;;;;;;;5115494;28;20204;-40
2021/04/24 03:25:45;;;;;;;2.80;2.25;;;;;;;;;;5115382;28;20257;-40
2021/04/24 03:28:11;;;;;;;2.10;1.90;;;;;;;;;;5115404;28;20173;-40
2021/04/24 03:30:37;;;;;;;2.10;1.90;;;;;;;;;;5115711;28;20188;-40
2021/04/24 03:33:03;;;;;;;1.88;1.65;;;;;;;;;;5095814;28;20178;-40
2021/04/24 03:35:29;;;;;;;2.47;2.00;;;;;;;;;;5111026;28;20269;-40
2021/04/24 03:37:55;;;;;;;2.10;1.90;;;;;;;;;;5108972;28;20180;-40
2021/04/24 03:40:21;;;;;;;2.08;1.98;;;;;;;;;;5115921;28;20169;-40
2021/04/24 03:42:47;;;;;;;2.05;1.85;;;;;;;;;;5114970;28;20334;-40
2021/04/24 03:45:21;;;;;;;1.95;1.65;;;;;;;;;;5115468;28;20252;-40
2021/04/24 03:47:48;;;;;;;2.33;1.83;;;;;;;;;;5115897;28;20177;-40
2021/04/24 03:50:15;;;;;;;1.85;1.75;;;;;;;;;;5115933;28;20270;-40
2021/04/24 03:52:41;;;;;;;1.85;1.70;;;;;;;;;;5097608;28;20213;-40
2021/04/24 03:55:07;;;;;;;2.17;1.98;;;;;;;;;;5115629;28;20211;-40
2021/04/24 03:57:33;;;;;;;2.22;2.03;;;;;;;;;;5115389;28;20478;-40
2021/04/24 03:59:59;;;;;;;1.83;1.73;;;;;;;;;;5115523;28;20252;-40
2021/04/24 04:02:25;;;;;;;1.92;1.83;;;;;;;;;;5114075;28;20327;-40
2021/04/24 04:04:52;;;;;;;2.00;1.85;;;;;;;;;;5113682;28;20658;-40
2021/04/24 04:07:18;;;;;;;2.83;2.13;;;;;;;;;;5113964;28;20177;-40
2021/04/24 04:09:44;;;;;;;1.92;1.83;;;;;;;;;;5115429;28;20253;-40
2021/04/24 04:12:10;;;;;;;1.95;1.80;;;;;;;;;;5114186;28;20315;-40
2021/04/24 04:14:37;;;;;;;1.95;1.80;;;;;;;;;;5115124;28;20187;-40
2021/04/24 04:17:03;;;;;;;1.92;1.77;;;;;;;;;;5115465;28;20169;-40
2021/04/24 04:19:29;;;;;;;2.10;2.00;;;;;;;;;;5114833;28;20173;-40
2021/04/24 04:21:55;;;;;;;2.03;1.88;;;;;;;;;;5114292;28;20232;-40
2021/04/24 04:24:21;;;;;;;2.33;2.08;;;;;;;;;;5114908;28;20249;-40
2021/04/24 04:26:47;;;;;;;2.05;1.92;;;;;;;;;;5114635;28;20188;-40
2021/04/24 04:29:13;;;;;;;2.20;1.90;;;;;;;;;;5114722;28;20613;-40
2021/04/24 04:31:39;;;;;;;2.28;2.10;;;;;;;;;;5114677;28;20170;-41
2021/04/24 04:34:05;;;;;;;2.30;2.10;;;;;;;;;;5113987;28;20187;-40
2021/04/24 04:36:31;;;;;;;2.40;2.20;;;;;;;;;;5115201;28;20624;-40
2021/04/24 04:38:57;;;;;;;2.83;2.60;;;;;;;;;;5114665;28;20563;-40
2021/04/24 04:41:23;;;;;;;2.58;2.38;;;;;;;;;;5114364;28;20206;-40
2021/04/24 04:43:49;;;;;;;1.92;1.73;;;;;;;;;;5114561;28;20181;-40
2021/04/24 04:46:15;;;;;;;3.00;2.40;;;;;;;;;;5115143;28;20196;-41
2021/04/24 04:48:41;;;;;;;2.67;2.15;;;;;;;;;;5100478;28;20231;-40
2021/04/24 04:51:07;;;;;;;2.80;2.28;;;;;;;;;;5109995;28;20261;-40
2021/04/24 04:53:33;;;;;;;2.30;2.10;;;;;;;;;;5114359;28;20181;-41
2021/04/24 04:55:59;;;;;;;2.97;2.40;;;;;;;;;;5114869;28;20173;-40
2021/04/24 04:58:25;;;;;;;2.33;2.13;;;;;;;;;;5114581;28;20191;-41
2021/04/24 05:00:51;;;;;;;2.70;2.50;;;;;;;;;;5114265;28;20201;-40
2021/04/24 05:03:18;;;;;;;2.65;2.45;;;;;;;;;;5096682;28;20474;-41
2021/04/24 05:05:43;;;;;;;2.20;2.00;;;;;;;;;;5098578;28;20199;-41
2021/04/24 05:08:09;;;;;;;2.33;2.13;;;;;;;;;;5114263;28;20180;-40
2021/04/24 05:10:35;;;;;;;2.35;2.15;;;;;;;;;;5114187;28;20173;-41
2021/04/24 05:13:01;;;;;;;1.95;1.85;;;;;;;;;;5113982;28;20793;-40
2021/04/24 05:15:27;;;;;;;2.20;2.00;;;;;;;;;;5114239;28;20188;-40
2021/04/24 05:17:53;;;;;;;2.13;2.00;;;;;;;;;;5114803;28;20188;-40
2021/04/24 05:20:19;;;;;;;2.28;2.08;;;;;;;;;;5095246;28;20201;-41
2021/04/24 05:22:46;;;;;;;2.45;2.25;;;;;;;;;;5112532;28;20309;-41
2021/04/24 05:25:13;;;;;;;2.00;1.90;;;;;;;;;;5114777;28;20728;-43
2021/04/24 05:27:43;;;;;;;1.95;1.85;;;;;;;;;;5114374;28;20181;-43
2021/04/24 05:30:10;;;;;;;3.55;2.22;;;;;;;;;;5114288;28;20165;-43
2021/04/24 05:32:36;;;;;;;2.47;2.28;;;;;;;;;;5114195;28;20177;-43
2021/04/24 05:35:02;;;;;;;2.70;2.10;;;;;;;;;;5103911;28;20182;-43
2021/04/24 05:37:27;;;;;;;2.88;2.58;;;;;;;;;;5109995;28;20177;-43
2021/04/24 05:39:56;;;;;;;2.40;2.20;;;;;;;;;;5114917;28;20183;-43
2021/04/24 05:42:22;;;;;;;2.10;2.00;;;;;;;;;;5116604;28;20205;-43
2021/04/24 05:44:48;;;;;;;2.47;2.28;;;;;;;;;;5117773;28;20180;-42
2021/04/24 05:47:14;;;;;;;2.70;2.50;;;;;;;;;;5118146;28;20809;-43
2021/04/24 05:49:40;;;;;;;2.15;1.95;;;;;;;;;;5117952;28;20486;-43
2021/04/24 05:52:06;;;;;;;2.50;2.30;;;;;;;;;;5114910;28;20207;-43
2021/04/24 05:54:33;;;;;;;2.30;2.10;;;;;;;;;;5117050;28;20544;-43
2021/04/24 05:56:59;;;;;;;1.95;1.85;;;;;;;;;;5117686;28;20216;-43
2021/04/24 05:59:25;;;;;;;3.85;2.20;;;;;;;;;;5099515;28;20192;-43
2021/04/24 06:01:51;;;;;;;2.45;2.25;;;;;;;;;;5099550;28;20207;-43
2021/04/24 06:04:17;;;;;;;2.35;2.17;;;;;;;;;;5117731;28;20252;-43
2021/04/24 06:06:43;;;;;;;2.38;2.17;;;;;;;;;;5117613;28;20601;-43
2021/04/24 06:09:09;;;;;;;2.63;1.98;;;;;;;;;;5117465;28;20229;-43
2021/04/24 06:11:35;;;;;;;4.60;2.20;;;;;;;;;;5117171;28;20177;-43
2021/04/24 06:14:02;;;;;;;2.83;2.63;;;;;;;;;;5113806;28;20177;-43
2021/04/24 06:16:28;;;;;;;4.65;2.22;;;;;;;;;;5107172;28;20548;-43
2021/04/24 06:18:55;;;;;;;5.30;2.25;;;;;;;;;;5117197;28;20278;-43
2021/04/24 06:21:21;;;;;;;5.85;2.72;;;;;;;;;;5116331;28;20188;-43
2021/04/24 06:23:47;;;;;;;5.68;2.40;;;;;;;;;;5117369;28;20196;-43
2021/04/24 06:26:13;;;;;;;7.93;2.55;;;;;;;;;;5113904;28;20228;-43
2021/04/24 06:28:39;;;;;;;5.32;2.50;;;;;;;;;;5114784;28;20204;-43
2021/04/24 06:31:05;;;;;;;8.10;2.63;;;;;;;;;;5116727;28;20177;-43
2021/04/24 06:33:31;;;;;;;6.28;2.70;;;;;;;;;;5117254;28;20192;-43
2021/04/24 06:35:57;;;;;;;4.50;2.42;;;;;;;;;;5116896;28;20216;-43
2021/04/24 06:38:23;;;;;;;2.83;2.58;;;;;;;;;;5117119;28;20209;-43
2021/04/24 06:40:49;;;;;;;3.50;2.58;;;;;;;;;;5114559;28;20210;-42
2021/04/24 06:43:15;;;;;;;4.30;2.60;;;;;;;;;;5115823;28;20472;-43
2021/04/24 06:45:41;;;;;;;5.22;2.92;;;;;;;;;;5116900;28;20177;-42
2021/04/24 06:48:07;;;;;;;3.70;2.55;;;;;;;;;;5117117;28;20548;-42
2021/04/24 06:50:33;;;;;;;4.45;2.47;;;;;;;;;;5116300;28;20174;-42
2021/04/24 06:52:59;;;;;;;6.40;2.58;;;;;;;;;;5116277;28;20234;-42
2021/04/24 06:55:26;;;;;;;6.78;3.20;;;;;;;;;;5116841;28;20188;-42
2021/04/24 06:57:52;;;;;;;3.25;2.75;;;;;;;;;;5116452;28;20177;-42
2021/04/24 07:00:18;;;;;;;7.80;3.08;;;;;;;;;;5116927;28;20209;-42
2021/04/24 07:02:44;;;;;;;4.15;2.70;;;;;;;;;;5115937;28;20220;-42
2021/04/24 07:05:12;;;;;;;7.68;2.83;;;;;;;;;;5117265;28;20169;-42
2021/04/24 07:07:38;;;;;;;5.75;2.88;;;;;;;;;;5116553;28;20181;-42
2021/04/24 07:10:07;;;;;;;6.53;2.83;;;;;;;;;;5116165;28;20590;-42
2021/04/24 07:12:34;;;;;;;6.20;2.88;;;;;;;;;;5115516;28;20555;-39
2021/04/24 07:15:00;;;;;;;6.60;2.80;;;;;;;;;;5116636;28;20177;-39
2021/04/24 07:17:26;;;;;;;4.32;2.80;;;;;;;;;;5116490;28;20180;-39
2021/04/24 07:19:52;;;;;;;6.28;3.22;;;;;;;;;;5116126;28;20246;-39
2021/04/24 07:22:18;;;;;;;4.35;2.72;;;;;;;;;;5115437;28;20462;-40
2021/04/24 07:24:46;;;;;;;5.93;2.83;;;;;;;;;;5116103;28;20184;-39
2021/04/24 07:27:13;;;;;;;3.42;2.72;;;;;;;;;;5116059;28;20165;-39
2021/04/24 07:29:39;;;;;;;4.50;2.97;;;;;;;;;;5116310;28;20173;-40
2021/04/24 07:32:05;;;;;;;5.95;3.15;;;;;;;;;;5109385;28;20178;-39
2021/04/24 07:34:32;;;;;;;10.40;2.55;;;;;;;;;;5096094;28;20239;-40
2021/04/24 07:36:58;;;;;;;2.80;2.55;;;;;;;;;;5095552;28;20768;-39
2021/04/24 07:39:24;;;;;;;3.10;2.70;;;;;;;;;;5104138;28;20256;-40
2021/04/24 07:41:50;;;;;;;4.28;2.85;;;;;;;;;;5115153;28;20583;-40
2021/04/24 07:44:17;;;;;;;6.93;2.78;;;;;;;;;;5115660;28;20169;-39
2021/04/24 07:46:43;;;;;;;4.95;2.60;;;;;;;;;;5103853;28;20264;-39
2021/04/24 07:49:09;;;;;;;5.88;3.00;;;;;;;;;;5095646;28;20244;-40
2021/04/24 07:51:35;;;;;;;6.10;2.80;;;;;;;;;;5115021;28;20260;-40
2021/04/24 07:54:01;;;;;;;4.45;2.85;;;;;;;;;;5115233;28;20250;-40
2021/04/24 07:56:27;;;;;;;5.80;2.97;;;;;;;;;;5104769;28;20161;-40
2021/04/24 07:58:53;;;;;;;6.22;2.90;;;;;;;;;;5115400;28;20191;-39
2021/04/24 08:01:19;;;;;;;5.47;2.78;;;;;;;;;;5114851;28;20581;-40
2021/04/24 08:03:46;;;;;;;7.13;2.42;;;;;;;;;;5108211;28;20176;-40
2021/04/24 08:06:12;;;;;;;6.57;2.35;;;;;;;;;;5115499;28;20165;-40
2021/04/24 08:08:38;;;;;;;3.80;2.42;;;;;;;;;;5115459;28;20212;-39
2021/04/24 08:11:04;;;;;;;3.60;2.47;;;;;;;;;;5097069;28;20197;-40
2021/04/24 08:13:30;;;;;;;3.42;2.42;;;;;;;;;;5115311;28;20255;-40
2021/04/24 08:15:56;;;;;;;5.28;2.88;;;;;;;;;;5115230;28;20591;-40
2021/04/24 08:18:22;;;;;;;4.55;2.47;;;;;;;;;;5112904;28;20191;-39
2021/04/24 08:20:48;;;;;;;3.25;2.25;;;;;;;;;;5107401;28;20193;-40
2021/04/24 08:23:15;;;;;;;4.00;2.25;;;;;;;;;;5114995;28;20311;-39
2021/04/24 08:25:41;;;;;;;3.97;2.30;;;;;;;;;;5115323;28;20169;-39
2021/04/24 08:28:07;;;;;;;2.63;2.20;;;;;;;;;;5114981;28;20177;-39
2021/04/24 08:30:33;;;;;;;3.45;2.15;;;;;;;;;;5112495;28;20188;-39
2021/04/24 08:33:00;;;;;;;3.10;2.53;;;;;;;;;;5105587;28;20177;-40
2021/04/24 08:35:26;;;;;;;2.75;2.20;;;;;;;;;;5115045;28;20205;-39
2021/04/24 08:37:52;;;;;;;2.65;2.03;;;;;;;;;;5115064;28;20195;-40
2021/04/24 08:40:18;;;;;;;3.70;2.15;;;;;;;;;;5115095;28;20493;-40
2021/04/24 08:42:47;;;;;;;2.97;2.35;;;;;;;;;;5114082;28;20204;-39
2021/04/24 08:45:14;;;;;;;4.95;2.80;;;;;;;;;;5114901;28;20227;-39
2021/04/24 08:47:44;;;;;;;3.47;2.25;;;;;;;;;;5113794;28;20169;-40
2021/04/24 08:50:14;;;;;;;3.42;2.15;;;;;;;;;;5101240;28;20185;-40
2021/04/24 08:52:41;;;;;;;3.92;2.40;;;;;;;;;;5114529;28;20173;-40
2021/04/24 08:55:07;;;;;;;4.10;2.67;;;;;;;;;;5114354;28;20173;-40
2021/04/24 08:57:35;;;;;;;4.60;2.50;;;;;;;;;;5111232;28;20177;-40
2021/04/24 09:00:01;;;;;;;2.92;2.15;;;;;;;;;;5096918;28;20266;-40
2021/04/24 09:02:27;;;;;;;4.75;2.40;;;;;;;;;;5113552;28;20197;-40
2021/04/24 09:04:53;;;;;;;3.80;2.10;;;;;;;;;;5115073;28;20215;-40
2021/04/24 09:07:19;;;;;;;3.70;2.45;;;;;;;;;;5114424;28;20469;-40
2021/04/24 09:09:56;;;;;;;3.53;2.50;;;;;;;;;;5114607;28;20190;-40
2021/04/24 09:12:38;;;;;;;6.25;2.65;;;;;;;;;;5110417;28;20183;-40
2021/04/24 09:15:09;;;;;;;11.98;3.90;;;;;;;;;;5115168;28;20204;-40
2021/04/24 09:17:52;;;;;;;37.35;10.55;;;;;;;;;;5118099;28;20637;-40
2021/04/24 09:20:18;;;;;;;45.67;10.93;;;;;;;;;;5114734;28;20194;-40
2021/04/24 09:22:53;;;;;;;50.53;13.77;;;;;;;;;;5117806;28;20240;-40
2021/04/24 09:25:19;;;;;;;56.08;13.95;;;;;;;;;;5118379;28;20169;-40
2021/04/24 09:27:46;;;;;;;59.72;15.60;;;;;;;;;;5116752;28;20616;-40
2021/04/24 09:30:17;;;;;;;75.22;17.35;;;;;;;;;;5111078;28;20177;-40
2021/04/24 09:32:43;;;;;;;58.75;15.18;;;;;;;;;;5118242;28;20181;-40
2021/04/24 09:35:09;;;;;;;59.65;15.75;;;;;;;;;;5100755;28;20181;-40
2021/04/24 09:37:35;;;;;;;52.90;15.60;;;;;;;;;;5107113;28;20246;-40
2021/04/24 09:40:09;;;;;;;56.55;15.50;;;;;;;;;;5118499;28;20256;-40
2021/04/24 09:42:44;;;;;;;57.88;16.15;;;;;;;;;;5117426;28;20200;-40
2021/04/24 09:45:30;;;;;;;50.92;14.65;;;;;;;;;;5118222;28;20169;-40
2021/04/24 09:47:56;;;;;;;63.35;16.08;;;;;;;;;;5118266;28;20161;-40
2021/04/24 09:50:28;;;;;;;50.67;14.60;;;;;;;;;;5113191;28;20548;-40
2021/04/24 09:53:12;;;;;;;39.45;14.15;;;;;;;;;;5115864;28;20185;-40
2021/04/24 09:55:39;;;;;;;46.08;14.90;;;;;;;;;;5115543;28;20208;-40
2021/04/24 09:58:05;;;;;;;43.70;13.57;;;;;;;;;;5115371;28;20181;-40
2021/04/24 10:00:31;;;;;;;37.30;13.05;;;;;;;;;;5115230;28;20189;-40
2021/04/24 10:02:59;;;;;;;40.20;12.48;;;;;;;;;;5117953;28;20197;-40
2021/04/24 10:05:25;;;;;;;39.20;13.00;;;;;;;;;;5117552;28;20173;-40
2021/04/24 10:07:55;;;;;;;42.75;13.00;;;;;;;;;;5110673;28;20184;-40
2021/04/24 10:10:24;;;;;;;37.42;12.95;;;;;;;;;;5116737;28;20177;-40
2021/04/24 10:12:58;;;;;;;38.60;12.20;;;;;;;;;;5116194;28;20200;-40
2021/04/24 10:15:36;;;;;;;33.45;12.20;;;;;;;;;;5109964;28;20192;-40
2021/04/24 10:18:02;;;;;;;31.98;11.82;;;;;;;;;;5112062;28;20482;-40
2021/04/24 10:20:28;;;;;;;33.72;11.55;;;;;;;;;;5117558;28;20575;-40
2021/04/24 10:22:55;;;;;;;32.85;10.50;;;;;;;;;;5116499;28;20631;-40
2021/04/24 10:25:22;;;;;;;27.95;10.65;;;;;;;;;;5117098;28;20608;-40
2021/04/24 10:27:48;;;;;;;29.98;10.43;;;;;;;;;;5115842;28;20192;-40
2021/04/24 10:30:14;;;;;;;32.33;10.40;;;;;;;;;;5117244;28;20235;-40
2021/04/24 10:32:42;;;;;;;26.70;9.48;;;;;;;;;;5116305;28;20181;-40
2021/04/24 10:35:10;;;;;;;28.02;9.55;;;;;;;;;;5116958;28;20185;-41
2021/04/24 10:37:36;;;;;;;24.60;9.40;;;;;;;;;;5116665;28;20181;-40
2021/04/24 10:40:03;;;;;;;25.67;9.45;;;;;;;;;;5116921;28;20452;-40
2021/04/24 10:42:30;;;;;;;22.58;8.63;;;;;;;;;;5116319;28;20196;-40
2021/04/24 10:45:06;;;;;;;26.58;9.15;;;;;;;;;;5117037;28;20857;-40
2021/04/24 10:47:38;;;;;;;25.85;9.85;;;;;;;;;;5115944;28;20173;-40
2021/04/24 10:50:06;;;;;;;19.23;8.68;;;;;;;;;;5109161;28;20170;-40
2021/04/24 10:52:32;;;;;;;19.80;8.52;;;;;;;;;;5100914;28;20212;-40
2021/04/24 10:55:13;;;;;;;27.00;9.15;;;;;;;;;;5097391;28;20232;-40
2021/04/24 10:57:48;;;;;;;18.92;7.90;;;;;;;;;;5101979;28;20174;-40
2021/04/24 11:00:16;;;;;;;22.05;8.27;;;;;;;;;;5106669;28;20181;-41
2021/04/24 11:02:53;;;;;;;20.75;7.93;;;;;;;;;;5115763;28;20280;-40
2021/04/24 11:05:30;;;;;;;17.15;7.75;;;;;;;;;;5115641;28;20264;-40
2021/04/24 11:08:09;;;;;;;16.83;7.85;;;;;;;;;;5102196;28;20178;-40
2021/04/24 11:10:42;;;;;;;24.10;7.05;;;;;;;;;;5106316;28;20180;-40
2021/04/24 11:13:09;;;;;;;21.58;7.88;;;;;;;;;;5115081;28;20169;-41
2021/04/24 11:15:36;;;;;;;18.98;7.13;;;;;;;;;;5114505;28;20258;-40
2021/04/24 11:18:03;;;;;;;17.98;7.40;;;;;;;;;;5116045;28;20227;-40
2021/04/24 11:20:47;;;;;;;16.13;7.50;;;;;;;;;;5116025;28;20629;-40
2021/04/24 11:23:42;;;;;;;13.95;6.90;;;;;;;;;;5091294;28;20206;-40
2021/04/24 11:26:09;;;;;;;14.27;6.90;;;;;;;;;;5097507;28;20269;-40
2021/04/24 11:28:55;;;;;;;17.00;6.65;;;;;;;;;;5111691;28;20181;-40
2021/04/24 11:31:41;;;;;;;15.18;7.30;;;;;;;;;;5111897;28;20188;-40
2021/04/24 11:34:27;;;;;;;13.43;6.65;;;;;;;;;;5110929;28;20177;-40
2021/04/24 11:37:13;;;;;;;13.80;6.00;;;;;;;;;;5114630;28;20560;-40
2021/04/24 11:39:59;;;;;;;12.68;6.28;;;;;;;;;;5112234;27;20325;-40
2021/04/24 11:42:29;;;;;;;13.85;6.10;;;;;;;;;;5115442;27;20238;-41
2021/04/24 11:44:55;;;;;;;20.23;11.15;;;;;;;;;;5121942;27;20271;-41
2021/04/24 11:47:39;;;;;;;33.42;17.52;;;;;;;;;;5114678;28;20669;-40
2021/04/24 11:50:06;;;;;;;43.53;18.23;;;;;;;;;;5112136;28;20172;-40
2021/04/24 11:52:32;;;;;;;47.63;20.25;;;;;;;;;;5114034;28;20211;-40
2021/04/24 11:54:58;;;;;;;73.00;26.48;;;;;;;;;;5115239;28;20177;-40
2021/04/24 11:57:24;;;;;;;70.75;24.65;;;;;;;;;;5114174;28;20196;-40
2021/04/24 11:59:50;;;;;;;48.47;20.27;;;;;;;;;;5109337;28;20185;-40
2021/04/24 12:02:18;;;;;;;71.65;24.10;;;;;;;;;;5114051;28;20361;-40
2021/04/24 12:04:45;;;;;;;72.72;24.73;;;;;;;;;;5115256;28;20241;-41
2021/04/24 12:07:11;;;;;;;81.97;26.38;;;;;;;;;;5114200;28;20176;-40
2021/04/24 12:09:47;;;;;;;91.90;29.88;;;;;;;;;;5098243;28;20222;-40
2021/04/24 12:12:14;;;;;;;80.32;27.17;;;;;;;;;;5114140;28;20252;-40
2021/04/24 12:14:40;;;;;;;86.00;27.58;;;;;;;;;;5114331;28;20169;-40
2021/04/24 12:17:10;;;;;;;87.88;30.27;;;;;;;;;;5114801;28;20242;-40
2021/04/24 12:19:40;;;;;;;79.32;29.08;;;;;;;;;;5112111;28;20169;-40
2021/04/24 12:22:12;;;;;;;78.60;28.27;;;;;;;;;;5114162;28;20200;-40
2021/04/24 12:24:57;;;;;;;86.68;29.70;;;;;;;;;;5115024;28;20470;-40
2021/04/24 12:27:33;;;;;;;72.25;27.90;;;;;;;;;;5106764;28;20205;-40
2021/04/24 12:29:59;;;;;;;72.70;27.85;;;;;;;;;;5106371;28;20206;-40
2021/04/24 12:32:26;;;;;;;73.03;26.45;;;;;;;;;;5114474;28;20184;-40
2021/04/24 12:34:52;;;;;;;68.30;23.73;;;;;;;;;;5115201;28;20230;-40
2021/04/24 12:37:22;;;;;;;51.88;20.67;;;;;;;;;;5107706;28;20176;-40
2021/04/24 12:40:06;;;;;;;55.55;20.85;;;;;;;;;;5107133;28;20185;-40
2021/04/24 12:42:32;;;;;;;58.75;21.10;;;;;;;;;;5114146;28;20208;-40
2021/04/24 12:44:58;;;;;;;53.83;21.73;;;;;;;;;;5114777;28;20260;-40
2021/04/24 12:47:25;;;;;;;52.03;20.25;;;;;;;;;;5089354;28;20174;-40
2021/04/24 12:49:51;;;;;;;48.45;19.48;;;;;;;;;;5105087;28;20182;-40
2021/04/24 12:52:17;;;;;;;48.38;19.55;;;;;;;;;;5099124;28;20299;-40
2021/04/24 12:54:43;;;;;;;45.45;18.70;;;;;;;;;;5115466;28;20180;-40
2021/04/24 12:57:12;;;;;;;46.28;17.83;;;;;;;;;;5118410;28;20204;-40
2021/04/24 12:59:38;;;;;;;46.38;16.98;;;;;;;;;;5118364;28;20180;-40
2021/04/24 13:02:04;;;;;;;44.85;17.80;;;;;;;;;;5121473;27;21417;-40
2021/04/24 13:04:31;;;;;;;41.72;17.10;;;;;;;;;;5117392;27;20173;-41
2021/04/24 13:06:58;;;;;;;42.72;17.65;;;;;;;;;;5110809;27;20180;-40
2021/04/24 13:09:37;;;;;;;48.22;17.38;;;;;;;;;;5116412;27;20202;-40
2021/04/24 13:12:07;;;;;;;42.00;16.08;;;;;;;;;;5129308;27;20184;-40
2021/04/24 13:14:40;;;;;;;42.88;16.17;;;;;;;;;;5118038;27;20321;-40
2021/04/24 13:17:09;;;;;;;37.80;16.58;;;;;;;;;;5115681;27;20213;-40
2021/04/24 13:19:50;;;;;;;35.35;15.38;;;;;;;;;;5111725;27;20257;-40
2021/04/24 13:22:35;;;;;;;30.92;14.40;;;;;;;;;;5115775;27;20200;-40
2021/04/24 13:25:03;;;;;;;36.25;14.68;;;;;;;;;;5117986;28;20181;-40
2021/04/24 13:27:29;;;;;;;35.03;14.00;;;;;;;;;;5118409;28;20189;-40
2021/04/24 13:29:55;;;;;;;32.90;13.90;;;;;;;;;;5118360;28;20294;-40
2021/04/24 13:32:21;;;;;;;29.15;13.40;;;;;;;;;;5117639;28;20255;-40
2021/04/24 13:34:49;;;;;;;28.80;13.38;;;;;;;;;;5100317;28;20206;-40
2021/04/24 13:37:23;;;;;;;32.85;13.05;;;;;;;;;;5116739;28;20173;-40
2021/04/24 13:39:51;;;;;;;28.88;13.85;;;;;;;;;;5118584;28;20169;-40
2021/04/24 13:42:19;;;;;;;26.63;12.52;;;;;;;;;;5100264;28;20462;-40
2021/04/24 13:44:46;;;;;;;26.58;11.93;;;;;;;;;;5118553;28;20271;-40
2021/04/24 13:47:25;;;;;;;28.38;12.00;;;;;;;;;;5117951;28;20237;-40
2021/04/24 13:49:52;;;;;;;26.33;11.93;;;;;;;;;;5117898;28;20192;-40
2021/04/24 13:52:18;;;;;;;26.30;11.95;;;;;;;;;;5114837;28;20173;-40
2021/04/24 13:54:45;;;;;;;25.52;11.68;;;;;;;;;;5100301;28;20182;-40
2021/04/24 13:57:11;;;;;;;22.33;11.15;;;;;;;;;;5118269;28;20441;-40
2021/04/24 13:59:37;;;;;;;24.98;10.95;;;;;;;;;;5117639;28;20177;-40
2021/04/24 14:02:03;;;;;;;23.00;11.43;;;;;;;;;;5115986;28;20208;-40
2021/04/24 14:04:29;;;;;;;22.15;10.43;;;;;;;;;;5117710;28;20482;-40
2021/04/24 14:06:55;;;;;;;26.63;10.75;;;;;;;;;;5117714;28;20425;-40
2021/04/24 14:09:22;;;;;;;27.73;10.10;;;;;;;;;;5116553;28;20169;-40
2021/04/24 14:11:48;;;;;;;23.15;10.15;;;;;;;;;;5117333;28;20214;-40
2021/04/24 14:14:14;;;;;;;23.00;10.40;;;;;;;;;;5117210;28;20181;-40
2021/04/24 14:16:40;;;;;;;18.27;9.10;;;;;;;;;;5117954;28;20205;-40
2021/04/24 14:19:06;;;;;;;18.33;9.45;;;;;;;;;;5117558;28;20197;-40
2021/04/24 14:21:33;;;;;;;18.35;9.20;;;;;;;;;;5117284;28;20522;-40
2021/04/24 14:24:00;;;;;;;19.58;8.68;;;;;;;;;;5117802;28;20200;-40
2021/04/24 14:26:26;;;;;;;20.33;9.95;;;;;;;;;;5105241;28;20269;-40
2021/04/24 14:28:52;;;;;;;17.73;9.20;;;;;;;;;;5097073;28;20504;-40
2021/04/24 14:31:18;;;;;;;17.60;8.60;;;;;;;;;;5115501;28;20180;-40
2021/04/24 14:33:44;;;;;;;14.88;8.15;;;;;;;;;;5117235;28;20199;-40
2021/04/24 14:36:10;;;;;;;16.80;8.48;;;;;;;;;;5117236;28;20177;-40
2021/04/24 14:38:36;;;;;;;15.00;8.27;;;;;;;;;;5117552;28;20191;-40